Time;durP1;ratioP1;P1;durP2;ratioP2;P2;SDS_P1;SDS_P2;PMS_P1;PMS_P2;Temp;Humidity;BMP_temperature;BMP_pressure;BME280_temperature;BME280_humidity;BME280_pressure;Samples;Min_cycle;Max_cycle;Signal;HPM_P1;HPM_P2
2022/07/15 00:01:41;;;;;;;;;5.67;4.00;;;;;21.32;100.00;101671.00;5018313;28;45582;-78
2022/07/15 00:04:07;;;;;;;;;2.00;1.00;;;;;21.26;100.00;101687.94;5033436;28;46219;-78
2022/07/15 00:06:33;;;;;;;;;4.00;3.00;;;;;21.20;100.00;101680.59;5018829;28;45745;-78
2022/07/15 00:08:58;;;;;;;;;5.00;5.00;;;;;21.17;100.00;101693.13;5025979;28;45742;-77
2022/07/15 00:11:24;;;;;;;;;3.00;3.00;;;;;21.06;100.00;101682.91;5005675;28;46035;-77
2022/07/15 00:13:49;;;;;;;;;5.67;3.67;;;;;20.96;100.00;101681.66;5024484;28;46739;-77
2022/07/15 00:16:15;;;;;;;;;6.00;4.00;;;;;20.97;100.00;101683.34;5018109;28;45447;-78
2022/07/15 00:18:41;;;;;;;;;6.00;4.00;;;;;20.93;100.00;101692.50;5030464;28;45633;-78
2022/07/15 00:21:06;;;;;;;;;4.00;4.00;;;;;20.89;100.00;101694.94;5051457;28;45702;-75
2022/07/15 00:23:32;;;;;;;;;3.33;3.33;;;;;20.87;100.00;101697.16;5019314;28;48041;-79
2022/07/15 00:25:58;;;;;;;;;4.00;3.00;;;;;20.85;100.00;101704.06;5044448;28;45398;-80
2022/07/15 00:28:24;;;;;;;;;4.00;3.67;;;;;20.76;100.00;101703.63;5027764;28;45297;-79
2022/07/15 00:30:52;;;;;;;;;4.67;4.00;;;;;20.74;100.00;101701.09;5038573;28;45501;-79
2022/07/15 00:33:17;;;;;;;;;3.33;2.33;;;;;20.69;100.00;101698.25;5028196;28;45888;-79
2022/07/15 00:35:43;;;;;;;;;5.00;2.67;;;;;20.64;100.00;101701.78;5040148;28;45681;-76
2022/07/15 00:38:09;;;;;;;;;2.00;2.00;;;;;20.66;100.00;101711.84;5008121;28;45903;-77
2022/07/15 00:40:49;;;;;;;;;3.67;3.33;;;;;20.50;100.00;101689.25;5027204;28;45256;-76
2022/07/15 00:43:18;;;;;;;;;4.00;3.00;;;;;20.60;100.00;101708.09;5041243;28;45701;-78
2022/07/15 00:45:45;;;;;;;;;3.00;3.00;;;;;20.55;100.00;101708.84;5038252;28;45763;-77
2022/07/15 00:48:11;;;;;;;;;3.67;3.67;;;;;20.51;100.00;101721.59;5035445;28;45719;-78
2022/07/15 00:50:37;;;;;;;;;4.00;3.00;;;;;20.41;100.00;101707.50;5010557;28;45325;-75
2022/07/15 00:53:12;;;;;;;;;3.00;3.00;;;;;20.25;100.00;101707.22;5030140;28;45295;-74
2022/07/15 00:55:41;;;;;;;;;3.33;3.00;;;;;20.23;100.00;101719.72;5026584;28;45892;-76
2022/07/15 00:58:10;;;;;;;;;4.67;4.67;;;;;20.21;100.00;101728.31;5024944;28;45617;-77
2022/07/15 01:00:35;;;;;;;;;2.67;2.67;;;;;20.16;100.00;101738.50;5030758;28;45359;-82
2022/07/15 01:03:02;;;;;;;;;7.00;6.00;;;;;19.96;100.00;101711.94;5042677;28;45487;-82
2022/07/15 01:05:28;;;;;;;;;4.00;3.00;;;;;20.07;100.00;101741.66;5032267;28;45413;-79
2022/07/15 01:07:54;;;;;;;;;3.00;3.00;;;;;19.97;100.00;101735.94;5031168;28;45812;-78
2022/07/15 01:10:23;;;;;;;;;3.00;3.00;;;;;19.93;100.00;101730.00;5033440;28;45557;-80
2022/07/15 01:12:50;;;;;;;;;3.33;2.00;;;;;19.90;100.00;101752.75;5010966;28;47771;-79
2022/07/15 01:15:17;;;;;;;;;4.67;3.00;;;;;19.88;100.00;101752.16;5029087;28;45197;-83
2022/07/15 01:17:45;;;;;;;;;3.67;3.67;;;;;19.83;100.00;101752.06;5044929;28;45323;-80
2022/07/15 01:20:12;;;;;;;;;2.00;2.00;;;;;19.78;100.00;101753.91;5026923;28;45506;-81
2022/07/15 01:22:38;;;;;;;;;1.00;1.00;;;;;19.80;100.00;101752.53;5031481;28;46249;-76
2022/07/15 01:25:04;;;;;;;;;3.00;3.00;;;;;19.82;100.00;101749.50;5028433;28;45377;-76
2022/07/15 01:27:30;;;;;;;;;3.00;2.00;;;;;19.79;100.00;101753.66;5029673;28;45430;-78
2022/07/15 01:29:55;;;;;;;;;4.33;2.00;;;;;19.74;100.00;101756.28;5022317;28;45383;-77
2022/07/15 01:32:21;;;;;;;;;4.33;3.33;;;;;19.73;100.00;101761.00;5019263;28;45927;-75
2022/07/15 01:34:48;;;;;;;;;4.00;2.67;;;;;19.69;100.00;101768.16;5040303;28;44803;-78
2022/07/15 01:37:14;;;;;;;;;3.00;3.00;;;;;19.63;100.00;101768.31;5023500;28;45427;-76
2022/07/15 01:39:40;;;;;;;;;3.33;3.00;;;;;19.55;100.00;101766.72;5025500;28;45420;-75
2022/07/15 01:42:06;;;;;;;;;6.33;3.00;;;;;19.49;100.00;101751.88;5020526;28;46464;-76
2022/07/15 01:44:31;;;;;;;;;6.00;2.67;;;;;19.43;100.00;101757.53;5024389;28;45791;-77
2022/07/15 01:46:57;;;;;;;;;3.00;2.00;;;;;19.31;100.00;101749.22;5033296;28;45358;-76
2022/07/15 01:49:22;;;;;;;;;4.00;3.00;;;;;19.35;100.00;101769.91;5038265;28;45789;-78
2022/07/15 01:51:49;;;;;;;;;3.00;2.00;;;;;19.28;100.00;101746.91;5040661;28;45505;-78
2022/07/15 01:54:14;;;;;;;;;2.33;2.33;;;;;19.15;100.00;101725.78;5028064;28;45490;-77
2022/07/15 01:56:40;;;;;;;;;3.33;3.00;;;;;19.23;100.00;101742.91;5039029;28;45466;-77
2022/07/15 01:59:05;;;;;;;;;4.33;3.00;;;;;19.05;100.00;101735.56;5032891;28;45353;-77
2022/07/15 02:01:31;;;;;;;;;2.00;0.00;;;;;19.11;100.00;101744.88;5017900;28;47357;-78
2022/07/15 02:03:57;;;;;;;;;4.33;2.67;;;;;18.94;100.00;101724.47;5041143;28;45438;-79
2022/07/15 02:06:22;;;;;;;;;2.00;2.00;;;;;19.04;100.00;101758.03;5020423;28;45746;-79
2022/07/15 02:08:48;;;;;;;;;4.00;2.00;;;;;18.97;100.00;101749.81;5037089;28;45302;-75
2022/07/15 02:11:13;;;;;;;;;4.00;2.00;;;;;18.92;100.00;101740.50;5025461;28;45765;-77
2022/07/15 02:13:39;;;;;;;;;2.67;2.67;;;;;18.87;100.00;101744.84;5018561;28;45714;-77
2022/07/15 02:16:05;;;;;;;;;2.33;2.33;;;;;18.67;100.00;101713.75;5032092;28;45333;-78
2022/07/15 02:18:30;;;;;;;;;4.00;4.00;;;;;18.68;100.00;101734.88;5021858;28;46901;-75
2022/07/15 02:20:57;;;;;;;;;2.00;2.00;;;;;18.72;100.00;101752.78;5042158;28;45931;-76
2022/07/15 02:23:23;;;;;;;;;3.33;3.33;;;;;18.70;100.00;101746.63;5037323;28;45437;-78
2022/07/15 02:25:49;;;;;;;;;1.67;0.67;;;;;18.61;100.00;101739.72;5031598;28;45423;-76
2022/07/15 02:28:15;;;;;;;;;5.33;4.00;;;;;18.59;100.00;101750.22;5038109;28;45546;-75
2022/07/15 02:30:42;;;;;;;;;3.00;3.00;;;;;18.59;100.00;101762.16;5029498;28;45465;-75
2022/07/15 02:33:08;;;;;;;;;4.00;3.33;;;;;18.57;100.00;101755.16;5028597;28;45582;-76
2022/07/15 02:35:34;;;;;;;;;4.00;3.00;;;;;18.53;100.00;101761.22;5034408;28;45398;-74
2022/07/15 02:37:59;;;;;;;;;5.67;4.00;;;;;18.51;100.00;101757.78;5036614;28;45786;-76
2022/07/15 02:40:26;;;;;;;;;2.33;2.33;;;;;18.48;100.00;101749.94;5030608;28;45487;-76
2022/07/15 02:42:53;;;;;;;;;5.33;3.00;;;;;18.47;100.00;101755.72;5020333;28;45585;-75
2022/07/15 02:45:21;;;;;;;;;5.33;5.33;;;;;18.44;100.00;101751.53;5033751;28;45367;-77
2022/07/15 02:47:47;;;;;;;;;6.00;5.67;;;;;18.41;100.00;101735.31;5028072;28;45460;-76
2022/07/15 02:50:14;;;;;;;;;4.67;4.00;;;;;18.43;100.00;101741.50;5034136;28;45309;-76
2022/07/15 02:52:41;;;;;;;;;8.67;8.00;;;;;18.35;100.00;101739.91;5007533;28;45298;-77
2022/07/15 02:55:07;;;;;;;;;5.67;5.33;;;;;18.38;100.00;101749.66;5038139;28;45391;-75
2022/07/15 02:57:33;;;;;;;;;4.67;4.67;;;;;18.33;100.00;101758.72;5029121;28;44754;-81
2022/07/15 02:59:58;;;;;;;;;2.33;2.33;;;;;18.30;100.00;101775.00;5028772;28;47054;-80
2022/07/15 03:02:24;;;;;;;;;3.67;2.67;;;;;18.08;100.00;101747.75;5054156;28;45541;-79
2022/07/15 03:04:49;;;;;;;;;4.00;4.00;;;;;18.17;100.00;101762.16;5035894;28;45542;-79
2022/07/15 03:07:15;;;;;;;;;3.00;3.00;;;;;18.17;100.00;101773.25;5024445;28;46189;-81
2022/07/15 03:09:40;;;;;;;;;4.00;3.33;;;;;18.09;100.00;101776.38;5041288;28;46359;-81
2022/07/15 03:12:06;;;;;;;;;3.67;3.00;;;;;18.07;100.00;101773.81;5049982;28;45717;-81
2022/07/15 03:14:33;;;;;;;;;4.00;4.00;;;;;18.04;100.00;101778.97;5039364;28;46178;-82
2022/07/15 03:16:58;;;;;;;;;6.00;5.00;;;;;17.98;100.00;101770.53;5046789;28;45348;-80
2022/07/15 03:19:24;;;;;;;;;5.67;4.00;;;;;17.95;100.00;101773.75;5034538;28;45427;-79
2022/07/15 03:21:49;;;;;;;;;6.00;4.00;;;;;17.83;100.00;101767.28;5025220;28;44806;-79
2022/07/15 03:24:15;;;;;;;;;6.33;4.00;;;;;17.86;100.00;101774.28;5020836;28;45431;-80
2022/07/15 03:26:42;;;;;;;;;4.00;4.00;;;;;17.92;100.00;101792.78;5046659;28;45947;-80
2022/07/15 03:29:08;;;;;;;;;5.33;4.00;;;;;17.91;100.00;101794.72;5044801;28;46593;-83
2022/07/15 03:31:33;;;;;;;;;2.33;2.33;;;;;17.70;100.00;101762.72;5040190;28;45513;-81
2022/07/15 03:33:59;;;;;;;;;4.33;4.00;;;;;17.82;100.00;101777.50;5048962;28;45336;-82
2022/07/15 03:36:24;;;;;;;;;3.00;3.00;;;;;17.91;100.00;101791.13;5040823;28;45507;-80
2022/07/15 03:38:51;;;;;;;;;7.67;5.67;;;;;17.90;100.00;101781.94;5042970;28;46487;-79
2022/07/15 03:41:21;;;;;;;;;4.00;4.00;;;;;17.92;100.00;101782.56;5045079;28;45518;-76
2022/07/15 03:43:46;;;;;;;;;5.67;4.67;;;;;17.87;100.00;101762.09;5043050;28;45408;-79
2022/07/15 03:46:13;;;;;;;;;3.33;3.33;;;;;17.74;100.00;101727.91;5036903;28;46866;-78
2022/07/15 03:48:39;;;;;;;;;5.33;3.00;;;;;17.86;100.00;101738.19;5032660;28;46207;-77
2022/07/15 03:51:05;;;;;;;;;6.00;4.33;;;;;18.03;100.00;101767.03;5025867;28;45806;-79
2022/07/15 03:53:30;;;;;;;;;6.67;6.00;;;;;18.03;100.00;101764.25;5011741;28;45496;-77
2022/07/15 03:55:56;;;;;;;;;7.33;4.33;;;;;18.01;100.00;101763.66;5024310;28;45566;-78
2022/07/15 03:58:21;;;;;;;;;5.33;4.00;;;;;18.05;100.00;101767.63;5035567;28;45556;-77
2022/07/15 04:00:47;;;;;;;;;4.00;4.00;;;;;18.01;100.00;101772.00;5020519;28;45409;-76
2022/07/15 04:03:12;;;;;;;;;6.33;6.33;;;;;18.02;100.00;101773.66;5018316;28;45565;-76
2022/07/15 04:05:38;;;;;;;;;5.33;4.00;;;;;18.00;100.00;101779.44;5028975;28;45369;-76
2022/07/15 04:08:04;;;;;;;;;4.00;4.00;;;;;18.00;100.00;101787.78;5031411;28;46267;-77
2022/07/15 04:10:31;;;;;;;;;4.00;4.00;;;;;18.00;100.00;101782.22;5033657;28;45734;-75
2022/07/15 04:12:56;;;;;;;;;3.67;3.67;;;;;18.11;100.00;101785.31;5031226;28;45355;-75
2022/07/15 04:15:22;;;;;;;;;3.00;3.00;;;;;18.21;100.00;101788.38;5034265;28;45552;-76
2022/07/15 04:17:47;;;;;;;;;4.00;4.00;;;;;18.31;100.00;101782.28;5035462;28;45390;-76
2022/07/15 04:20:12;;;;;;;;;5.00;4.00;;;;;18.46;100.00;101784.63;5018737;28;45502;-75
2022/07/15 04:22:40;;;;;;;;;5.00;4.33;;;;;18.63;100.00;101782.00;5035583;28;44803;-77
2022/07/15 04:25:07;;;;;;;;;6.00;4.67;;;;;18.94;100.00;101793.94;5039571;28;45542;-77
2022/07/15 04:27:33;;;;;;;;;7.00;4.00;;;;;19.17;100.00;101799.50;5031439;28;46603;-75
2022/07/15 04:29:58;;;;;;;;;3.00;3.00;;;;;19.43;100.00;101793.72;5040216;28;45674;-77
2022/07/15 04:32:25;;;;;;;;;3.00;3.00;;;;;19.73;100.00;101790.75;5034974;28;45434;-74
2022/07/15 04:34:51;;;;;;;;;7.33;4.00;;;;;20.09;100.00;101797.16;5017724;28;45581;-73
2022/07/15 04:37:16;;;;;;;;;3.00;3.00;;;;;20.38;100.00;101792.41;5034838;28;45486;-76
2022/07/15 04:39:42;;;;;;;;;4.33;3.33;;;;;20.67;100.00;101794.38;5043001;28;45517;-77
2022/07/15 04:42:07;;;;;;;;;1.67;1.67;;;;;20.84;100.00;101778.50;5047437;28;45311;-77
2022/07/15 04:44:33;;;;;;;;;4.33;4.00;;;;;21.23;100.00;101781.38;5047722;28;45835;-77
2022/07/15 04:47:04;;;;;;;;;3.00;3.00;;;;;21.63;100.00;101769.16;5043517;28;45581;-80
2022/07/15 04:52:15;;;;;;;;;3.33;3.33;;;;;22.56;100.00;101792.63;5040583;28;45435;-77
2022/07/15 04:54:41;;;;;;;;;5.00;5.00;;;;;22.72;100.00;101777.69;5026694;28;46786;-75
2022/07/15 04:57:06;;;;;;;;;4.67;4.67;;;;;22.96;99.64;101777.28;5040466;28;46732;-73
2022/07/15 04:59:32;;;;;;;;;6.00;4.00;;;;;23.42;97.83;101794.44;5041645;28;45475;-76
2022/07/15 05:01:58;;;;;;;;;4.00;4.00;;;;;23.62;94.94;101776.94;5034017;28;45446;-76
2022/07/15 05:04:24;;;;;;;;;8.33;5.67;;;;;24.04;92.35;101797.63;5032292;28;45435;-78
2022/07/15 05:06:49;;;;;;;;;6.00;5.00;;;;;23.97;90.44;101771.81;5023387;28;46916;-80
2022/07/15 05:09:15;;;;;;;;;5.00;4.67;;;;;24.36;89.44;101796.59;5030713;28;45401;-79
2022/07/15 05:11:40;;;;;;;;;28.33;23.67;;;;;24.81;87.11;101809.03;5030446;28;44900;-77
2022/07/15 05:14:06;;;;;;;;;4.67;4.67;;;;;24.96;84.06;101793.34;5038551;28;45833;-78
2022/07/15 05:16:31;;;;;;;;;4.67;4.00;;;;;25.32;82.02;101802.59;5034183;28;46558;-78
2022/07/15 05:18:57;;;;;;;;;6.00;3.33;;;;;25.64;79.21;101809.81;5029745;28;45363;-79
2022/07/15 05:21:22;;;;;;;;;4.67;4.00;;;;;25.87;77.72;101802.72;5036610;28;45472;-76
2022/07/15 05:23:48;;;;;;;;;5.67;3.00;;;;;26.14;74.27;101811.91;5033291;28;45695;-78
2022/07/15 05:26:18;;;;;;;;;6.00;4.00;;;;;26.02;73.28;101776.56;5043599;28;46448;-78
2022/07/15 05:28:44;;;;;;;;;3.67;3.33;;;;;26.25;72.46;101814.38;5046447;28;45740;-75
2022/07/15 05:31:09;;;;;;;;;4.67;4.00;;;;;26.31;71.82;101820.00;5037848;28;45502;-75
2022/07/15 05:33:35;;;;;;;;;7.00;5.00;;;;;26.41;70.80;101828.38;5046236;28;45509;-75
2022/07/15 05:36:00;;;;;;;;;5.67;5.67;;;;;26.43;69.85;101835.38;5031420;28;46605;-76
2022/07/15 05:38:26;;;;;;;;;5.00;4.00;;;;;26.35;69.85;101824.75;5034627;28;45485;-76
2022/07/15 05:40:53;;;;;;;;;4.00;4.00;;;;;26.21;70.14;101841.41;5029277;28;45460;-76
2022/07/15 05:43:19;;;;;;;;;5.00;3.33;;;;;26.01;71.83;101850.75;5023667;28;45481;-75
2022/07/15 05:45:45;;;;;;;;;4.00;3.00;;;;;26.03;72.43;101842.03;5032434;28;45997;-76
2022/07/15 05:48:10;;;;;;;;;4.67;4.67;;;;;26.16;71.92;101847.06;5048352;28;45885;-76
2022/07/15 05:50:36;;;;;;;;;4.33;3.00;;;;;26.23;71.45;101843.94;5037287;28;46104;-76
2022/07/15 05:53:02;;;;;;;;;6.67;6.33;;;;;26.29;70.84;101842.78;5033328;28;45775;-74
2022/07/15 05:55:29;;;;;;;;;5.67;5.33;;;;;26.48;70.64;101831.69;5045326;28;46450;-75
2022/07/15 05:57:55;;;;;;;;;5.00;5.00;;;;;26.75;69.14;101834.09;5032459;28;45453;-79
2022/07/15 06:00:20;;;;;;;;;5.00;4.00;;;;;27.11;67.11;101845.09;5035464;28;45269;-79
2022/07/15 06:02:46;;;;;;;;;5.33;5.00;;;;;27.25;65.25;101842.41;5041182;28;47131;-79
2022/07/15 06:05:11;;;;;;;;;4.33;4.33;;;;;27.39;63.81;101830.50;5033259;28;47039;-80
2022/07/15 06:07:37;;;;;;;;;4.00;4.00;;;;;27.64;62.90;101827.41;5046475;28;45379;-78
2022/07/15 06:10:04;;;;;;;;;3.67;3.67;;;;;27.80;60.80;101818.78;5038603;28;45590;-78
2022/07/15 06:12:29;;;;;;;;;3.00;3.00;;;;;28.18;59.36;101836.66;5044470;28;45559;-80
2022/07/15 06:14:55;;;;;;;;;6.67;4.00;;;;;28.38;58.07;101831.88;5049099;28;45375;-80
2022/07/15 06:17:26;;;;;;;;;5.67;3.67;;;;;28.68;56.15;101832.59;5051928;28;45350;-80
2022/07/15 06:19:52;;;;;;;;;7.00;5.00;;;;;28.86;54.73;101833.72;5047080;28;45799;-77
2022/07/15 06:22:17;;;;;;;;;7.33;5.00;;;;;28.92;52.66;101815.56;5039243;28;46617;-74
2022/07/15 06:24:43;;;;;;;;;8.00;4.67;;;;;29.05;52.26;101830.88;5037209;28;46235;-74
2022/07/15 06:27:08;;;;;;;;;6.33;5.00;;;;;29.33;51.22;101837.50;5052268;28;45403;-76
2022/07/15 06:29:34;;;;;;;;;4.67;3.67;;;;;29.23;49.52;101821.56;5045290;28;45044;-79
2022/07/15 06:31:59;;;;;;;;;5.33;3.33;;;;;29.37;49.19;101837.69;5028438;28;44793;-78
2022/07/15 06:34:25;;;;;;;;;4.33;3.67;;;;;29.48;48.23;101833.56;5029590;28;45996;-76
2022/07/15 06:36:50;;;;;;;;;5.00;4.67;;;;;29.89;47.58;101843.25;5038146;28;44781;-78
2022/07/15 06:39:17;;;;;;;;;4.33;3.00;;;;;30.23;46.50;101836.31;5037471;28;45240;-75
2022/07/15 06:41:43;;;;;;;;;4.33;3.67;;;;;30.67;44.87;101846.09;5040722;28;45438;-79
2022/07/15 06:44:08;;;;;;;;;5.33;4.00;;;;;30.94;43.81;101845.16;5042624;28;45347;-76
2022/07/15 06:46:34;;;;;;;;;5.00;2.67;;;;;31.10;42.06;101837.13;5033086;28;45850;-76
2022/07/15 06:48:59;;;;;;;;;5.67;3.67;;;;;31.27;41.84;101838.41;5037187;28;45768;-76
2022/07/15 06:51:25;;;;;;;;;3.33;2.33;;;;;31.61;41.36;101839.81;5038779;28;45600;-76
2022/07/15 06:53:51;;;;;;;;;5.00;4.00;;;;;31.96;39.96;101842.78;5047276;28;45564;-77
2022/07/15 06:56:16;;;;;;;;;5.00;3.33;;;;;32.15;38.86;101848.22;5041199;28;45418;-77
2022/07/15 06:58:42;;;;;;;;;6.67;4.33;;;;;32.63;37.88;101849.28;5043533;28;45614;-78
2022/07/15 07:01:07;;;;;;;;;3.00;3.00;;;;;32.86;37.99;101833.78;5042357;28;46569;-75
2022/07/15 07:03:33;;;;;;;;;3.00;3.00;;;;;33.44;36.36;101836.38;5035141;28;47774;-77
2022/07/15 07:05:58;;;;;;;;;2.00;2.00;;;;;34.05;35.02;101838.16;5046442;28;45464;-77
2022/07/15 07:08:24;;;;;;;;;5.67;3.67;;;;;34.74;33.60;101851.09;5043899;28;45625;-79
2022/07/15 07:10:50;;;;;;;;;3.00;3.00;;;;;34.97;32.02;101851.59;5044280;28;45182;-76
2022/07/15 07:13:15;;;;;;;;;3.25;3.25;;;;;35.26;30.19;101844.09;5042039;28;46301;-80
2022/07/15 07:15:41;;;;;;;;;2.00;2.00;;;;;35.27;29.43;101811.56;5047991;28;45465;-79
2022/07/15 07:18:06;;;;;;;;;3.00;3.00;;;;;35.64;29.40;101825.06;5045083;28;45420;-76
2022/07/15 07:20:32;;;;;;;;;3.00;2.00;;;;;35.81;28.23;101855.41;5036910;28;45972;-77
2022/07/15 07:22:57;;;;;;;;;6.00;2.50;;;;;35.63;28.63;101840.50;5033133;28;46418;-73
2022/07/15 07:25:23;;;;;;;;;4.33;3.00;;;;;35.54;28.93;101846.31;5039884;28;45590;-80
2022/07/15 07:27:49;;;;;;;;;2.00;2.00;;;;;35.59;27.70;101840.38;5043895;28;45414;-80
2022/07/15 07:30:15;;;;;;;;;4.00;2.25;;;;;35.50;27.75;101842.53;5030512;28;45477;-77
2022/07/15 07:32:40;;;;;;;;;2.00;2.00;;;;;35.59;27.93;101843.25;5049434;28;46283;-79
2022/07/15 07:35:08;;;;;;;;;3.00;3.00;;;;;35.69;27.61;101842.78;5042630;28;45696;-82
2022/07/15 07:38:01;;;;;;;;;3.67;2.67;;;;;35.50;27.63;101808.28;5035379;28;44814;-86
2022/07/15 07:40:27;;;;;;;;;3.50;2.25;;;;;35.74;27.58;101823.75;5044691;28;46342;-79
2022/07/15 07:42:55;;;;;;;;;1.50;1.50;;;;;35.98;26.79;101826.63;5030892;28;45881;-80
2022/07/15 07:45:21;;;;;;;;;2.50;2.25;;;;;36.13;26.66;101807.13;5030061;28;45665;-80
2022/07/15 07:47:58;;;;;;;;;5.00;2.33;;;;;36.05;25.97;101792.59;5040759;28;45922;-80
2022/07/15 07:50:23;;;;;;;;;3.00;1.50;;;;;36.36;26.40;101818.88;5043106;28;45793;-78
2022/07/15 07:52:49;;;;;;;;;4.00;3.25;;;;;36.63;26.12;101827.84;5030422;28;45607;-78
2022/07/15 07:55:16;;;;;;;;;3.33;3.33;;;;;36.63;25.66;101833.56;5041668;28;45441;-79
2022/07/15 07:57:57;;;;;;;;;3.75;3.25;;;;;36.48;26.47;101815.16;5039172;28;46683;-79
2022/07/15 08:00:26;;;;;;;;;2.00;2.00;;;;;36.57;25.24;101812.97;5040114;28;46765;-79
2022/07/15 08:02:52;;;;;;;;;1.67;1.67;;;;;37.03;24.68;101813.53;5048889;28;45385;-78
2022/07/15 08:05:19;;;;;;;;;2.00;1.00;;;;;37.10;24.03;101819.47;5049497;28;45451;-82
2022/07/15 08:07:48;;;;;;;;;2.25;2.25;;;;;36.97;23.99;101832.16;5051988;28;45420;-83
2022/07/15 08:10:15;;;;;;;;;1.75;1.25;;;;;36.45;23.51;101790.16;5032411;28;45485;-82
2022/07/15 08:12:46;;;;;;;;;2.00;2.00;;;;;36.46;24.07;101797.56;5033466;28;45450;-83
2022/07/15 08:15:15;;;;;;;;;3.00;1.25;;;;;36.73;23.52;101813.06;5039775;28;45846;-81
2022/07/15 08:17:43;;;;;;;;;2.00;1.00;;;;;36.68;23.75;101781.84;5052103;28;44891;-82
2022/07/15 08:20:13;;;;;;;;;2.00;2.00;;;;;37.21;23.41;101787.47;5035176;28;45147;-82
2022/07/15 08:22:39;;;;;;;;;2.00;2.00;;;;;37.70;22.93;101832.94;5033036;28;47670;-85
2022/07/15 08:25:06;;;;;;;;;2.00;2.00;;;;;37.70;22.43;101794.84;5037470;28;45340;-84
2022/07/15 08:27:32;;;;;;;;;3.00;3.00;;;;;38.22;22.18;101821.53;5055468;28;45102;-83
2022/07/15 08:29:58;;;;;;;;;2.00;2.00;;;;;38.37;21.97;101806.34;5042299;28;44824;-83
2022/07/15 08:32:24;;;;;;;;;5.33;4.33;;;;;38.50;21.79;101815.63;5042761;28;45224;-84
2022/07/15 08:34:49;;;;;;;;;2.67;2.67;;;;;38.46;21.79;101800.38;5045287;28;45366;-85
2022/07/15 08:37:16;;;;;;;;;1.50;1.00;;;;;38.15;21.31;101811.53;5049893;28;45130;-85
2022/07/15 08:39:42;;;;;;;;;3.00;2.00;;;;;38.20;21.76;101813.31;5065715;28;45475;-83
2022/07/15 08:42:07;;;;;;;;;0.00;0.00;;;;;38.14;21.28;101818.47;5054319;28;45656;-84
2022/07/15 08:44:35;;;;;;;;;1.75;1.75;;;;;38.10;21.57;101811.00;5052439;28;44845;-83
2022/07/15 08:47:05;;;;;;;;;1.33;1.33;;;;;38.26;21.02;101811.00;5054604;28;44767;-83
2022/07/15 08:49:33;;;;;;;;;3.00;2.00;;;;;38.30;21.25;101809.06;5043851;28;45484;-84
2022/07/15 08:52:01;;;;;;;;;2.00;2.00;;;;;38.12;21.22;101812.28;5043627;28;47644;-83
2022/07/15 08:54:27;;;;;;;;;3.00;3.00;;;;;38.05;20.80;101794.94;5063272;28;45430;-83
2022/07/15 08:56:53;;;;;;;;;1.67;1.00;;;;;38.32;21.02;101804.56;5033299;28;45566;-83
2022/07/15 08:59:18;;;;;;;;;0.67;0.67;;;;;38.06;20.32;101770.81;5047128;28;45338;-87
2022/07/15 09:01:48;;;;;;;;;3.00;2.00;;;;;37.87;20.36;101794.50;5056094;28;45792;-83
2022/07/15 09:04:19;;;;;;;;;1.33;1.33;;;;;37.70;21.06;101784.25;5067586;28;45309;-83
2022/07/15 09:06:50;;;;;;;;;2.67;2.67;;;;;37.91;20.63;101757.38;5051074;28;44757;-83
2022/07/15 09:09:30;;;;;;;;;0.00;0.00;;;;;38.37;19.54;101786.28;5060085;28;46426;-82
2022/07/15 09:12:03;;;;;;;;;1.00;1.00;;;;;38.55;19.30;101794.41;5063085;28;45215;-83
2022/07/15 09:14:30;;;;;;;;;3.00;2.00;;;;;38.66;20.08;101784.88;5055182;28;45183;-84
2022/07/15 09:17:06;;;;;;;;;3.00;1.00;;;;;39.52;19.15;101793.47;5057583;28;44753;-83
2022/07/15 09:20:09;;;;;;;;;2.50;1.75;;;;;39.30;18.27;101792.25;5058070;28;45460;-83
2022/07/15 09:22:47;;;;;;;;;0.00;0.00;;;;;39.53;18.26;101795.13;5067234;28;45522;-82
2022/07/15 09:25:14;;;;;;;;;1.33;1.33;;;;;39.58;18.66;101803.44;5053851;28;45638;-83
2022/07/15 09:27:42;;;;;;;;;1.00;1.00;;;;;39.42;18.12;101783.47;5043355;28;45423;-84
2022/07/15 09:36:04;;;;;;;;;1.50;1.50;;;;;39.38;18.04;101794.88;5063565;28;44717;-84
2022/07/15 09:38:32;;;;;;;;;0.00;0.00;;;;;39.07;18.32;101786.47;5071272;28;45438;-83
2022/07/15 09:40:59;;;;;;;;;1.00;1.00;;;;;38.87;17.95;101754.97;5074626;28;45261;-83
2022/07/15 09:43:24;;;;;;;;;2.00;1.00;;;;;38.89;18.15;101772.63;5058009;28;45389;-82
2022/07/15 09:46:01;;;;;;;;;1.00;1.00;;;;;38.82;18.82;101781.94;5066027;28;45240;-83
2022/07/15 09:48:28;;;;;;;;;1.00;1.00;;;;;39.16;18.59;101775.63;5054550;28;45633;-82
2022/07/15 09:51:01;;;;;;;;;1.00;1.00;;;;;39.31;18.01;101791.03;5036834;28;45836;-83
2022/07/15 09:53:27;;;;;;;;;3.00;1.00;;;;;39.68;18.38;101776.13;5070211;28;46697;-84
2022/07/15 09:55:55;;;;;;;;;0.00;0.00;;;;;40.10;17.79;101772.28;5069008;28;45536;-82
2022/07/15 09:58:21;;;;;;;;;1.50;1.50;;;;;40.86;17.52;101765.44;5065253;28;45267;-83
2022/07/15 10:00:48;;;;;;;;;2.00;1.00;;;;;41.15;16.75;101757.13;5053702;28;46073;-83
2022/07/15 10:03:16;;;;;;;;;1.00;1.00;;;;;40.97;15.63;101768.47;5053059;28;47705;-83
2022/07/15 10:05:43;;;;;;;;;0.00;0.00;;;;;40.47;16.06;101753.47;5055345;28;45081;-84
2022/07/15 10:08:12;;;;;;;;;0.50;0.50;;;;;40.38;16.39;101768.97;5071308;28;45473;-83
2022/07/15 10:10:39;;;;;;;;;0.75;0.75;;;;;40.70;15.93;101770.63;5055384;28;44804;-84
2022/07/15 10:13:17;;;;;;;;;1.00;0.00;;;;;40.44;16.63;101749.38;5040983;28;47009;-83
2022/07/15 10:15:51;;;;;;;;;1.00;1.00;;;;;40.55;16.33;101776.19;5055373;28;45413;-84
2022/07/15 10:18:52;;;;;;;;;1.25;1.25;;;;;40.33;16.62;101762.72;5079046;28;45574;-83
2022/07/15 10:21:48;;;;;;;;;1.00;1.00;;;;;40.59;16.87;101762.69;5027976;28;45899;-84
2022/07/15 10:24:32;;;;;;;;;0.75;0.75;;;;;40.29;16.42;101761.84;5053549;28;47173;-84
2022/07/15 10:27:35;;;;;;;;;1.50;1.50;;;;;40.31;16.71;101756.56;5052654;28;45652;-83
2022/07/15 10:30:06;;;;;;;;;1.00;1.00;;;;;40.59;16.06;101741.72;5060892;28;44853;-82
2022/07/15 10:33:03;;;;;;;;;1.00;1.00;;;;;41.07;16.37;101747.59;5052900;28;46133;-83
2022/07/15 10:35:41;;;;;;;;;2.25;0.75;;;;;41.71;15.50;101742.81;5048342;28;46838;-83
2022/07/15 10:38:33;;;;;;;;;1.75;1.75;;;;;41.69;15.70;101751.03;5051361;28;45447;-82
2022/07/15 10:41:05;;;;;;;;;0.00;0.00;;;;;41.30;15.68;101737.94;5057855;28;45332;-83
2022/07/15 10:43:53;;;;;;;;;0.25;0.25;;;;;41.03;15.44;101728.66;5051261;28;45546;-82
2022/07/15 10:46:28;;;;;;;;;0.00;0.00;;;;;41.05;16.03;101741.44;5045481;28;47283;-80
2022/07/15 10:48:56;;;;;;;;;0.25;0.25;;;;;41.07;15.61;101746.78;5068562;28;45493;-81
2022/07/15 10:51:37;;;;;;;;;0.00;0.00;;;;;41.05;15.67;101732.81;5068660;28;45461;-81
2022/07/15 10:54:07;;;;;;;;;0.25;0.25;;;;;40.95;15.28;101739.28;5047303;28;47140;-81
2022/07/15 10:56:46;;;;;;;;;1.00;1.00;;;;;40.42;15.49;101737.38;5061425;28;45945;-81
2022/07/15 10:59:23;;;;;;;;;0.25;0.25;;;;;40.01;15.59;101725.78;5041755;28;45399;-81
2022/07/15 11:02:09;;;;;;;;;7.67;6.33;;;;;40.11;15.95;101721.38;5064175;28;45546;-83
2022/07/15 11:04:38;;;;;;;;;1.00;0.00;;;;;39.90;15.89;101737.91;5058697;28;45757;-81
2022/07/15 11:07:06;;;;;;;;;0.00;0.00;;;;;39.51;16.00;101737.25;5063636;28;46389;-83
2022/07/15 11:09:58;;;;;;;;;1.00;1.00;;;;;39.22;16.29;101725.28;5071005;28;45587;-81
2022/07/15 11:12:44;;;;;;;;;0.00;0.00;;;;;39.39;17.41;101715.34;5058464;28;45172;-82
2022/07/15 11:15:16;;;;;;;;;1.50;1.50;;;;;39.70;16.93;101701.91;5054601;28;45292;-79
2022/07/15 11:17:46;;;;;;;;;1.00;1.00;;;;;39.80;16.06;101706.97;5043995;28;47144;-80
2022/07/15 11:20:21;;;;;;;;;0.00;0.00;;;;;39.08;16.71;101722.97;5064443;28;45456;-82
2022/07/15 11:22:52;;;;;;;;;0.50;0.50;;;;;38.49;16.75;101705.03;5050134;28;45614;-83
2022/07/15 11:25:20;;;;;;;;;1.00;1.00;;;;;37.87;17.63;101697.16;5049171;28;45557;-82
2022/07/15 11:28:18;;;;;;;;;3.00;2.67;;;;;37.25;17.97;101709.13;5075964;28;45842;-81
2022/07/15 11:30:53;;;;;;;;;2.00;1.00;;;;;36.75;18.28;101702.03;5029753;28;45548;-82
2022/07/15 11:33:21;;;;;;;;;2.00;1.00;;;;;36.18;19.16;101699.16;5048195;28;44879;-81
2022/07/15 11:35:57;;;;;;;;;2.50;2.50;;;;;35.45;19.68;101682.97;5053218;28;45450;-83